sensor_id;sensor_type;location;lat;lon;timestamp;P1;durP1;ratioP1;P2;durP2;ratioP2
48042;SDS011;33988;47.992;8.820;2023-03-31T00:01:12;2.92;;;2.17;;
48042;SDS011;33988;47.992;8.820;2023-03-31T00:03:38;5.95;;;2.50;;
48042;SDS011;33988;47.992;8.820;2023-03-31T00:06:10;6.68;;;2.83;;
48042;SDS011;33988;47.992;8.820;2023-03-31T00:08:44;3.28;;;2.22;;
48042;SDS011;33988;47.992;8.820;2023-03-31T00:11:17;3.88;;;2.53;;
48042;SDS011;33988;47.992;8.820;2023-03-31T00:13:47;5.20;;;2.75;;
48042;SDS011;33988;47.992;8.820;2023-03-31T00:16:14;4.28;;;2.65;;
48042;SDS011;33988;47.992;8.820;2023-03-31T00:21:17;2.83;;;2.30;;
48042;SDS011;33988;47.992;8.820;2023-03-31T00:23:58;3.13;;;2.17;;
48042;SDS011;33988;47.992;8.820;2023-03-31T00:26:29;5.72;;;2.40;;
48042;SDS011;33988;47.992;8.820;2023-03-31T00:29:00;7.05;;;2.60;;
48042;SDS011;33988;47.992;8.820;2023-03-31T00:31:29;4.40;;;2.40;;
48042;SDS011;33988;47.992;8.820;2023-03-31T00:33:56;3.80;;;2.28;;
48042;SDS011;33988;47.992;8.820;2023-03-31T00:36:24;3.78;;;2.45;;
48042;SDS011;33988;47.992;8.820;2023-03-31T00:38:58;3.80;;;2.40;;
48042;SDS011;33988;47.992;8.820;2023-03-31T00:41:34;3.85;;;2.03;;
48042;SDS011;33988;47.992;8.820;2023-03-31T00:46:35;4.35;;;2.17;;
48042;SDS011;33988;47.992;8.820;2023-03-31T00:49:45;4.35;;;2.38;;
48042;SDS011;33988;47.992;8.820;2023-03-31T00:55:02;5.07;;;2.47;;
48042;SDS011;33988;47.992;8.820;2023-03-31T00:57:37;2.88;;;2.00;;
48042;SDS011;33988;47.992;8.820;2023-03-31T01:00:07;4.03;;;2.30;;
48042;SDS011;33988;47.992;8.820;2023-03-31T01:02:48;3.92;;;2.45;;
48042;SDS011;33988;47.992;8.820;2023-03-31T01:05:26;4.60;;;2.08;;
48042;SDS011;33988;47.992;8.820;2023-03-31T01:07:56;5.35;;;2.78;;
48042;SDS011;33988;47.992;8.820;2023-03-31T01:10:25;3.42;;;2.40;;
48042;SDS011;33988;47.992;8.820;2023-03-31T01:12:53;4.53;;;2.50;;
48042;SDS011;33988;47.992;8.820;2023-03-31T01:15:25;4.55;;;2.53;;
48042;SDS011;33988;47.992;8.820;2023-03-31T01:17:52;6.18;;;2.58;;
48042;SDS011;33988;47.992;8.820;2023-03-31T01:33:11;6.68;;;3.25;;
48042;SDS011;33988;47.992;8.820;2023-03-31T01:47:58;5.75;;;2.97;;
48042;SDS011;33988;47.992;8.820;2023-03-31T01:56:36;4.40;;;1.88;;
48042;SDS011;33988;47.992;8.820;2023-03-31T01:59:10;2.67;;;1.60;;
48042;SDS011;33988;47.992;8.820;2023-03-31T02:04:22;3.85;;;1.98;;
48042;SDS011;33988;47.992;8.820;2023-03-31T02:07:03;2.92;;;2.03;;
48042;SDS011;33988;47.992;8.820;2023-03-31T02:09:43;4.80;;;2.60;;
48042;SDS011;33988;47.992;8.820;2023-03-31T02:12:16;2.88;;;1.98;;
48042;SDS011;33988;47.992;8.820;2023-03-31T02:14:46;2.17;;;1.77;;
48042;SDS011;33988;47.992;8.820;2023-03-31T02:17:18;3.45;;;2.20;;
48042;SDS011;33988;47.992;8.820;2023-03-31T02:19:56;4.45;;;2.20;;
48042;SDS011;33988;47.992;8.820;2023-03-31T02:22:29;4.38;;;2.28;;
48042;SDS011;33988;47.992;8.820;2023-03-31T02:25:00;3.67;;;2.42;;
48042;SDS011;33988;47.992;8.820;2023-03-31T02:27:30;3.65;;;1.83;;
48042;SDS011;33988;47.992;8.820;2023-03-31T02:30:03;3.50;;;2.47;;
48042;SDS011;33988;47.992;8.820;2023-03-31T02:32:43;5.00;;;3.08;;
48042;SDS011;33988;47.992;8.820;2023-03-31T02:35:15;5.20;;;2.72;;
48042;SDS011;33988;47.992;8.820;2023-03-31T02:37:50;7.68;;;2.75;;
48042;SDS011;33988;47.992;8.820;2023-03-31T02:40:20;4.72;;;2.67;;
48042;SDS011;33988;47.992;8.820;2023-03-31T02:42:52;5.85;;;2.47;;
48042;SDS011;33988;47.992;8.820;2023-03-31T02:48:23;5.10;;;2.53;;
48042;SDS011;33988;47.992;8.820;2023-03-31T02:51:22;4.53;;;2.53;;
48042;SDS011;33988;47.992;8.820;2023-03-31T03:02:44;4.25;;;2.63;;
48042;SDS011;33988;47.992;8.820;2023-03-31T03:08:50;5.05;;;2.88;;
48042;SDS011;33988;47.992;8.820;2023-03-31T03:11:51;7.65;;;4.47;;
48042;SDS011;33988;47.992;8.820;2023-03-31T03:14:49;9.68;;;5.60;;
48042;SDS011;33988;47.992;8.820;2023-03-31T03:17:33;10.18;;;5.05;;
48042;SDS011;33988;47.992;8.820;2023-03-31T03:20:11;8.93;;;4.63;;
48042;SDS011;33988;47.992;8.820;2023-03-31T03:22:41;8.43;;;4.30;;
48042;SDS011;33988;47.992;8.820;2023-03-31T03:25:11;7.07;;;3.80;;
48042;SDS011;33988;47.992;8.820;2023-03-31T03:27:40;6.28;;;3.50;;
48042;SDS011;33988;47.992;8.820;2023-03-31T03:30:07;6.43;;;3.40;;
48042;SDS011;33988;47.992;8.820;2023-03-31T03:32:37;4.72;;;3.15;;
48042;SDS011;33988;47.992;8.820;2023-03-31T03:35:04;6.35;;;2.83;;
48042;SDS011;33988;47.992;8.820;2023-03-31T03:37:32;6.30;;;2.53;;
48042;SDS011;33988;47.992;8.820;2023-03-31T03:39:59;4.03;;;2.88;;
48042;SDS011;33988;47.992;8.820;2023-03-31T03:42:31;4.50;;;2.80;;
48042;SDS011;33988;47.992;8.820;2023-03-31T03:45:00;4.20;;;2.63;;
48042;SDS011;33988;47.992;8.820;2023-03-31T03:47:30;4.93;;;2.92;;
48042;SDS011;33988;47.992;8.820;2023-03-31T03:49:59;5.30;;;3.17;;
48042;SDS011;33988;47.992;8.820;2023-03-31T03:52:27;5.45;;;3.33;;
48042;SDS011;33988;47.992;8.820;2023-03-31T03:54:54;5.45;;;3.10;;
48042;SDS011;33988;47.992;8.820;2023-03-31T03:57:21;4.22;;;3.00;;
48042;SDS011;33988;47.992;8.820;2023-03-31T03:59:51;4.18;;;2.90;;
48042;SDS011;33988;47.992;8.820;2023-03-31T04:02:18;5.05;;;2.70;;
48042;SDS011;33988;47.992;8.820;2023-03-31T04:04:49;4.93;;;3.17;;
48042;SDS011;33988;47.992;8.820;2023-03-31T04:07:16;5.18;;;2.50;;
48042;SDS011;33988;47.992;8.820;2023-03-31T04:09:43;5.60;;;3.28;;
48042;SDS011;33988;47.992;8.820;2023-03-31T04:12:10;3.40;;;2.90;;
48042;SDS011;33988;47.992;8.820;2023-03-31T04:14:37;4.00;;;2.90;;
48042;SDS011;33988;47.992;8.820;2023-03-31T04:17:06;5.45;;;3.00;;
48042;SDS011;33988;47.992;8.820;2023-03-31T04:19:43;4.93;;;2.97;;
48042;SDS011;33988;47.992;8.820;2023-03-31T04:22:12;5.63;;;3.40;;
48042;SDS011;33988;47.992;8.820;2023-03-31T04:24:40;8.70;;;3.85;;
48042;SDS011;33988;47.992;8.820;2023-03-31T04:27:11;7.75;;;3.65;;
48042;SDS011;33988;47.992;8.820;2023-03-31T04:29:38;7.22;;;3.97;;
48042;SDS011;33988;47.992;8.820;2023-03-31T04:32:05;8.55;;;4.10;;
48042;SDS011;33988;47.992;8.820;2023-03-31T04:34:34;6.47;;;3.97;;
48042;SDS011;33988;47.992;8.820;2023-03-31T04:37:01;7.57;;;3.70;;
48042;SDS011;33988;47.992;8.820;2023-03-31T04:39:29;8.30;;;4.28;;
48042;SDS011;33988;47.992;8.820;2023-03-31T04:41:58;7.10;;;4.32;;
48042;SDS011;33988;47.992;8.820;2023-03-31T04:44:28;4.65;;;3.90;;
48042;SDS011;33988;47.992;8.820;2023-03-31T04:46:58;6.47;;;4.22;;
48042;SDS011;33988;47.992;8.820;2023-03-31T04:49:28;5.22;;;3.88;;
48042;SDS011;33988;47.992;8.820;2023-03-31T04:51:55;4.55;;;3.55;;
48042;SDS011;33988;47.992;8.820;2023-03-31T04:54:24;5.88;;;3.72;;
48042;SDS011;33988;47.992;8.820;2023-03-31T04:56:51;6.95;;;3.55;;
48042;SDS011;33988;47.992;8.820;2023-03-31T04:59:20;6.35;;;4.03;;
48042;SDS011;33988;47.992;8.820;2023-03-31T05:01:47;5.75;;;3.60;;
48042;SDS011;33988;47.992;8.820;2023-03-31T05:04:17;4.80;;;3.63;;
48042;SDS011;33988;47.992;8.820;2023-03-31T05:06:46;4.97;;;3.40;;
48042;SDS011;33988;47.992;8.820;2023-03-31T05:09:13;5.43;;;3.15;;
48042;SDS011;33988;47.992;8.820;2023-03-31T05:11:40;5.78;;;3.30;;
48042;SDS011;33988;47.992;8.820;2023-03-31T05:14:07;7.25;;;4.13;;
48042;SDS011;33988;47.992;8.820;2023-03-31T05:16:34;7.00;;;4.32;;
48042;SDS011;33988;47.992;8.820;2023-03-31T05:19:03;7.60;;;4.70;;
48042;SDS011;33988;47.992;8.820;2023-03-31T05:21:36;6.22;;;3.90;;
48042;SDS011;33988;47.992;8.820;2023-03-31T05:24:03;3.83;;;3.17;;
48042;SDS011;33988;47.992;8.820;2023-03-31T05:26:32;4.43;;;3.25;;
48042;SDS011;33988;47.992;8.820;2023-03-31T05:28:59;4.97;;;2.95;;
48042;SDS011;33988;47.992;8.820;2023-03-31T05:31:26;6.07;;;2.95;;
48042;SDS011;33988;47.992;8.820;2023-03-31T05:33:55;4.60;;;3.08;;
48042;SDS011;33988;47.992;8.820;2023-03-31T05:36:22;5.70;;;3.85;;
48042;SDS011;33988;47.992;8.820;2023-03-31T05:38:49;4.40;;;3.08;;
48042;SDS011;33988;47.992;8.820;2023-03-31T05:41:18;5.15;;;3.67;;
48042;SDS011;33988;47.992;8.820;2023-03-31T05:43:48;6.43;;;3.60;;
48042;SDS011;33988;47.992;8.820;2023-03-31T05:46:17;4.32;;;3.15;;
48042;SDS011;33988;47.992;8.820;2023-03-31T05:48:44;5.80;;;3.28;;
48042;SDS011;33988;47.992;8.820;2023-03-31T05:51:11;6.90;;;3.38;;
48042;SDS011;33988;47.992;8.820;2023-03-31T05:53:38;6.32;;;3.33;;
48042;SDS011;33988;47.992;8.820;2023-03-31T05:56:05;5.22;;;3.17;;
48042;SDS011;33988;47.992;8.820;2023-03-31T05:58:34;3.85;;;2.80;;
48042;SDS011;33988;47.992;8.820;2023-03-31T06:01:15;4.82;;;3.40;;
48042;SDS011;33988;47.992;8.820;2023-03-31T06:03:46;4.60;;;3.35;;
48042;SDS011;33988;47.992;8.820;2023-03-31T06:06:18;5.60;;;3.30;;
48042;SDS011;33988;47.992;8.820;2023-03-31T06:08:46;5.05;;;3.47;;
48042;SDS011;33988;47.992;8.820;2023-03-31T06:11:15;6.18;;;3.55;;
48042;SDS011;33988;47.992;8.820;2023-03-31T06:13:47;4.75;;;3.08;;
48042;SDS011;33988;47.992;8.820;2023-03-31T06:16:15;5.15;;;3.28;;
48042;SDS011;33988;47.992;8.820;2023-03-31T06:18:47;4.65;;;3.40;;
48042;SDS011;33988;47.992;8.820;2023-03-31T06:21:18;4.82;;;3.72;;
48042;SDS011;33988;47.992;8.820;2023-03-31T06:23:47;4.95;;;4.22;;
48042;SDS011;33988;47.992;8.820;2023-03-31T06:26:16;6.05;;;4.10;;
48042;SDS011;33988;47.992;8.820;2023-03-31T06:28:44;6.70;;;4.72;;
48042;SDS011;33988;47.992;8.820;2023-03-31T06:31:13;8.13;;;4.38;;
48042;SDS011;33988;47.992;8.820;2023-03-31T06:33:47;4.72;;;4.22;;
48042;SDS011;33988;47.992;8.820;2023-03-31T06:36:15;6.15;;;3.83;;
48042;SDS011;33988;47.992;8.820;2023-03-31T06:38:45;5.03;;;3.90;;
48042;SDS011;33988;47.992;8.820;2023-03-31T06:41:12;4.95;;;3.42;;
48042;SDS011;33988;47.992;8.820;2023-03-31T06:43:43;5.95;;;3.70;;
48042;SDS011;33988;47.992;8.820;2023-03-31T06:46:11;6.32;;;3.95;;
48042;SDS011;33988;47.992;8.820;2023-03-31T06:48:41;7.40;;;4.78;;
48042;SDS011;33988;47.992;8.820;2023-03-31T06:51:10;9.07;;;4.40;;
48042;SDS011;33988;47.992;8.820;2023-03-31T06:53:40;7.20;;;4.32;;
48042;SDS011;33988;47.992;8.820;2023-03-31T06:56:07;5.95;;;3.97;;
48042;SDS011;33988;47.992;8.820;2023-03-31T06:58:34;5.93;;;3.20;;
48042;SDS011;33988;47.992;8.820;2023-03-31T07:01:02;4.75;;;3.22;;
48042;SDS011;33988;47.992;8.820;2023-03-31T07:03:31;4.05;;;2.63;;
48042;SDS011;33988;47.992;8.820;2023-03-31T07:06:01;4.47;;;1.65;;
48042;SDS011;33988;47.992;8.820;2023-03-31T07:08:31;1.40;;;1.30;;
48042;SDS011;33988;47.992;8.820;2023-03-31T07:10:58;1.30;;;1.00;;
48042;SDS011;33988;47.992;8.820;2023-03-31T07:13:26;0.60;;;0.60;;
48042;SDS011;33988;47.992;8.820;2023-03-31T07:15:54;1.42;;;0.80;;
48042;SDS011;33988;47.992;8.820;2023-03-31T07:18:23;1.27;;;0.75;;
48042;SDS011;33988;47.992;8.820;2023-03-31T07:20:51;1.00;;;0.60;;
48042;SDS011;33988;47.992;8.820;2023-03-31T07:23:20;1.85;;;0.70;;
48042;SDS011;33988;47.992;8.820;2023-03-31T07:25:47;0.80;;;0.60;;
48042;SDS011;33988;47.992;8.820;2023-03-31T07:28:15;0.60;;;0.60;;
48042;SDS011;33988;47.992;8.820;2023-03-31T07:30:42;0.98;;;0.60;;
48042;SDS011;33988;47.992;8.820;2023-03-31T07:33:09;1.50;;;0.70;;
48042;SDS011;33988;47.992;8.820;2023-03-31T07:35:39;1.15;;;0.68;;
48042;SDS011;33988;47.992;8.820;2023-03-31T07:38:09;3.10;;;1.10;;
48042;SDS011;33988;47.992;8.820;2023-03-31T07:40:37;0.63;;;0.52;;
48042;SDS011;33988;47.992;8.820;2023-03-31T07:43:08;1.13;;;0.70;;
48042;SDS011;33988;47.992;8.820;2023-03-31T07:45:37;2.45;;;0.70;;
48042;SDS011;33988;47.992;8.820;2023-03-31T07:48:06;1.00;;;0.88;;
48042;SDS011;33988;47.992;8.820;2023-03-31T07:50:33;4.18;;;0.70;;
48042;SDS011;33988;47.992;8.820;2023-03-31T07:53:00;1.65;;;0.80;;
48042;SDS011;33988;47.992;8.820;2023-03-31T07:55:29;2.28;;;0.80;;
48042;SDS011;33988;47.992;8.820;2023-03-31T07:57:56;1.08;;;0.80;;
48042;SDS011;33988;47.992;8.820;2023-03-31T08:00:23;1.48;;;0.65;;
48042;SDS011;33988;47.992;8.820;2023-03-31T08:02:50;1.17;;;0.60;;
48042;SDS011;33988;47.992;8.820;2023-03-31T08:05:19;0.77;;;0.52;;
48042;SDS011;33988;47.992;8.820;2023-03-31T08:07:47;1.20;;;0.60;;
48042;SDS011;33988;47.992;8.820;2023-03-31T08:10:17;2.40;;;0.60;;
48042;SDS011;33988;47.992;8.820;2023-03-31T08:12:50;1.25;;;0.63;;
48042;SDS011;33988;47.992;8.820;2023-03-31T08:15:19;0.80;;;0.60;;
48042;SDS011;33988;47.992;8.820;2023-03-31T08:17:47;1.15;;;0.80;;
48042;SDS011;33988;47.992;8.820;2023-03-31T08:20:13;2.00;;;0.63;;
48042;SDS011;33988;47.992;8.820;2023-03-31T08:22:40;1.88;;;0.77;;
48042;SDS011;33988;47.992;8.820;2023-03-31T08:25:08;0.68;;;0.52;;
48042;SDS011;33988;47.992;8.820;2023-03-31T08:27:38;0.75;;;0.70;;
48042;SDS011;33988;47.992;8.820;2023-03-31T08:30:09;2.63;;;0.90;;
48042;SDS011;33988;47.992;8.820;2023-03-31T08:32:37;1.33;;;0.75;;
48042;SDS011;33988;47.992;8.820;2023-03-31T08:35:04;1.35;;;0.80;;
48042;SDS011;33988;47.992;8.820;2023-03-31T08:37:35;1.42;;;0.93;;
48042;SDS011;33988;47.992;8.820;2023-03-31T08:40:09;1.42;;;0.80;;
48042;SDS011;33988;47.992;8.820;2023-03-31T08:42:51;1.80;;;1.10;;
48042;SDS011;33988;47.992;8.820;2023-03-31T08:45:30;2.47;;;0.90;;
48042;SDS011;33988;47.992;8.820;2023-03-31T08:50:56;1.38;;;0.80;;
48042;SDS011;33988;47.992;8.820;2023-03-31T08:53:41;2.35;;;0.82;;
48042;SDS011;33988;47.992;8.820;2023-03-31T08:56:14;1.98;;;0.90;;
48042;SDS011;33988;47.992;8.820;2023-03-31T08:58:46;1.52;;;0.73;;
48042;SDS011;33988;47.992;8.820;2023-03-31T09:01:23;1.73;;;0.80;;
48042;SDS011;33988;47.992;8.820;2023-03-31T09:07:29;2.13;;;0.80;;
48042;SDS011;33988;47.992;8.820;2023-03-31T09:10:31;1.17;;;0.68;;
48042;SDS011;33988;47.992;8.820;2023-03-31T09:16:26;1.23;;;0.82;;
48042;SDS011;33988;47.992;8.820;2023-03-31T09:19:17;0.85;;;0.68;;
48042;SDS011;33988;47.992;8.820;2023-03-31T09:22:05;1.05;;;0.70;;
48042;SDS011;33988;47.992;8.820;2023-03-31T09:24:57;1.27;;;0.50;;
48042;SDS011;33988;47.992;8.820;2023-03-31T09:27:31;3.92;;;0.93;;
48042;SDS011;33988;47.992;8.820;2023-03-31T09:32:32;1.35;;;0.68;;
48042;SDS011;33988;47.992;8.820;2023-03-31T09:35:18;1.63;;;0.52;;
48042;SDS011;33988;47.992;8.820;2023-03-31T09:37:55;4.13;;;0.73;;
48042;SDS011;33988;47.992;8.820;2023-03-31T09:40:25;1.73;;;0.70;;
48042;SDS011;33988;47.992;8.820;2023-03-31T09:45:40;1.58;;;0.60;;
48042;SDS011;33988;47.992;8.820;2023-03-31T09:48:18;3.60;;;0.70;;
48042;SDS011;33988;47.992;8.820;2023-03-31T09:50:54;1.10;;;0.70;;
48042;SDS011;33988;47.992;8.820;2023-03-31T09:53:42;1.75;;;0.65;;
48042;SDS011;33988;47.992;8.820;2023-03-31T09:59:29;1.65;;;0.77;;
48042;SDS011;33988;47.992;8.820;2023-03-31T10:02:05;14.57;;;0.90;;
48042;SDS011;33988;47.992;8.820;2023-03-31T10:05:05;2.38;;;0.98;;
48042;SDS011;33988;47.992;8.820;2023-03-31T10:07:52;1.98;;;0.55;;
48042;SDS011;33988;47.992;8.820;2023-03-31T10:10:44;2.22;;;0.50;;
48042;SDS011;33988;47.992;8.820;2023-03-31T10:13:21;2.67;;;0.88;;
48042;SDS011;33988;47.992;8.820;2023-03-31T10:15:52;0.50;;;0.50;;
48042;SDS011;33988;47.992;8.820;2023-03-31T10:18:39;2.85;;;0.80;;
48042;SDS011;33988;47.992;8.820;2023-03-31T10:21:24;3.05;;;0.70;;
48042;SDS011;33988;47.992;8.820;2023-03-31T10:23:53;2.22;;;0.80;;
48042;SDS011;33988;47.992;8.820;2023-03-31T10:26:21;1.80;;;0.90;;
48042;SDS011;33988;47.992;8.820;2023-03-31T10:28:51;1.73;;;0.80;;
48042;SDS011;33988;47.992;8.820;2023-03-31T10:31:23;2.33;;;0.80;;
48042;SDS011;33988;47.992;8.820;2023-03-31T10:34:03;2.28;;;0.60;;
48042;SDS011;33988;47.992;8.820;2023-03-31T10:36:33;0.95;;;0.55;;
48042;SDS011;33988;47.992;8.820;2023-03-31T10:39:04;2.15;;;0.77;;
48042;SDS011;33988;47.992;8.820;2023-03-31T10:41:32;2.45;;;0.70;;
48042;SDS011;33988;47.992;8.820;2023-03-31T10:44:00;1.58;;;0.82;;
48042;SDS011;33988;47.992;8.820;2023-03-31T10:46:45;1.13;;;0.70;;
48042;SDS011;33988;47.992;8.820;2023-03-31T10:49:24;1.67;;;0.80;;
48042;SDS011;33988;47.992;8.820;2023-03-31T10:51:53;1.83;;;0.80;;
48042;SDS011;33988;47.992;8.820;2023-03-31T10:54:24;1.08;;;0.50;;
48042;SDS011;33988;47.992;8.820;2023-03-31T10:57:02;0.80;;;0.60;;
48042;SDS011;33988;47.992;8.820;2023-03-31T10:59:49;1.40;;;0.60;;
48042;SDS011;33988;47.992;8.820;2023-03-31T11:08:20;1.25;;;0.60;;
48042;SDS011;33988;47.992;8.820;2023-03-31T11:11:07;2.70;;;0.80;;
48042;SDS011;33988;47.992;8.820;2023-03-31T11:13:55;2.28;;;0.82;;
48042;SDS011;33988;47.992;8.820;2023-03-31T11:16:40;2.08;;;0.80;;
48042;SDS011;33988;47.992;8.820;2023-03-31T11:34:06;0.77;;;0.45;;
48042;SDS011;33988;47.992;8.820;2023-03-31T11:42:37;2.35;;;0.70;;
48042;SDS011;33988;47.992;8.820;2023-03-31T11:45:33;2.65;;;0.80;;
48042;SDS011;33988;47.992;8.820;2023-03-31T11:50:59;1.50;;;0.50;;
48042;SDS011;33988;47.992;8.820;2023-03-31T11:53:31;1.23;;;0.45;;
48042;SDS011;33988;47.992;8.820;2023-03-31T11:56:01;0.55;;;0.35;;
48042;SDS011;33988;47.992;8.820;2023-03-31T11:59:04;2.20;;;0.80;;
48042;SDS011;33988;47.992;8.820;2023-03-31T12:04:04;2.13;;;0.77;;
48042;SDS011;33988;47.992;8.820;2023-03-31T12:06:36;2.45;;;0.65;;
48042;SDS011;33988;47.992;8.820;2023-03-31T12:12:21;3.75;;;0.75;;
48042;SDS011;33988;47.992;8.820;2023-03-31T12:15:09;2.85;;;0.90;;
48042;SDS011;33988;47.992;8.820;2023-03-31T12:18:09;2.55;;;0.80;;
48042;SDS011;33988;47.992;8.820;2023-03-31T12:20:41;1.30;;;0.60;;
48042;SDS011;33988;47.992;8.820;2023-03-31T12:23:26;1.45;;;0.65;;
48042;SDS011;33988;47.992;8.820;2023-03-31T12:25:59;1.88;;;0.70;;
48042;SDS011;33988;47.992;8.820;2023-03-31T12:28:40;2.60;;;0.60;;
48042;SDS011;33988;47.992;8.820;2023-03-31T12:31:10;2.33;;;0.80;;
48042;SDS011;33988;47.992;8.820;2023-03-31T12:33:53;1.42;;;0.60;;
48042;SDS011;33988;47.992;8.820;2023-03-31T12:44:56;1.33;;;0.50;;
48042;SDS011;33988;47.992;8.820;2023-03-31T12:59:37;1.45;;;0.40;;
48042;SDS011;33988;47.992;8.820;2023-03-31T13:04:36;1.98;;;0.50;;
48042;SDS011;33988;47.992;8.820;2023-03-31T13:07:31;0.82;;;0.50;;
48042;SDS011;33988;47.992;8.820;2023-03-31T13:15:39;1.13;;;0.63;;
48042;SDS011;33988;47.992;8.820;2023-03-31T13:18:17;0.77;;;0.38;;
48042;SDS011;33988;47.992;8.820;2023-03-31T13:20:58;0.68;;;0.50;;
48042;SDS011;33988;47.992;8.820;2023-03-31T13:23:29;0.60;;;0.40;;
48042;SDS011;33988;47.992;8.820;2023-03-31T13:26:00;1.42;;;0.57;;
48042;SDS011;33988;47.992;8.820;2023-03-31T13:28:33;1.07;;;0.50;;
48042;SDS011;33988;47.992;8.820;2023-03-31T13:31:09;1.70;;;0.52;;
48042;SDS011;33988;47.992;8.820;2023-03-31T14:07:58;2.20;;;0.82;;
48042;SDS011;33988;47.992;8.820;2023-03-31T14:10:54;1.25;;;0.50;;
48042;SDS011;33988;47.992;8.820;2023-03-31T14:14:11;1.08;;;0.60;;
48042;SDS011;33988;47.992;8.820;2023-03-31T14:16:47;1.80;;;0.85;;
48042;SDS011;33988;47.992;8.820;2023-03-31T14:19:27;2.22;;;0.68;;
48042;SDS011;33988;47.992;8.820;2023-03-31T14:28:43;1.63;;;0.50;;
48042;SDS011;33988;47.992;8.820;2023-03-31T14:32:31;0.95;;;0.43;;
48042;SDS011;33988;47.992;8.820;2023-03-31T14:37:15;0.63;;;0.40;;
48042;SDS011;33988;47.992;8.820;2023-03-31T14:39:46;0.35;;;0.35;;
48042;SDS011;33988;47.992;8.820;2023-03-31T14:42:20;0.45;;;0.32;;
48042;SDS011;33988;47.992;8.820;2023-03-31T14:44:56;2.22;;;0.50;;
48042;SDS011;33988;47.992;8.820;2023-03-31T14:47:28;0.30;;;0.20;;
48042;SDS011;33988;47.992;8.820;2023-03-31T14:50:07;1.05;;;0.50;;
48042;SDS011;33988;47.992;8.820;2023-03-31T14:52:47;0.50;;;0.30;;
48042;SDS011;33988;47.992;8.820;2023-03-31T14:55:19;0.20;;;0.10;;
48042;SDS011;33988;47.992;8.820;2023-03-31T14:58:00;0.40;;;0.32;;
48042;SDS011;33988;47.992;8.820;2023-03-31T15:00:29;0.40;;;0.40;;
48042;SDS011;33988;47.992;8.820;2023-03-31T15:02:59;0.73;;;0.30;;
48042;SDS011;33988;47.992;8.820;2023-03-31T15:05:29;0.77;;;0.30;;
48042;SDS011;33988;47.992;8.820;2023-03-31T15:08:06;0.20;;;0.20;;
48042;SDS011;33988;47.992;8.820;2023-03-31T15:10:44;0.50;;;0.25;;
48042;SDS011;33988;47.992;8.820;2023-03-31T15:13:42;0.87;;;0.40;;
48042;SDS011;33988;47.992;8.820;2023-03-31T15:19:21;0.73;;;0.35;;
48042;SDS011;33988;47.992;8.820;2023-03-31T15:21:54;0.68;;;0.50;;
48042;SDS011;33988;47.992;8.820;2023-03-31T15:24:27;0.50;;;0.38;;
48042;SDS011;33988;47.992;8.820;2023-03-31T15:32:06;0.75;;;0.50;;
48042;SDS011;33988;47.992;8.820;2023-03-31T15:34:41;0.40;;;0.40;;
48042;SDS011;33988;47.992;8.820;2023-03-31T15:37:08;0.73;;;0.50;;
48042;SDS011;33988;47.992;8.820;2023-03-31T15:39:43;1.13;;;0.80;;
48042;SDS011;33988;47.992;8.820;2023-03-31T15:42:12;0.77;;;0.70;;
48042;SDS011;33988;47.992;8.820;2023-03-31T15:47:16;1.27;;;0.60;;
48042;SDS011;33988;47.992;8.820;2023-03-31T15:50:07;1.27;;;0.65;;
48042;SDS011;33988;47.992;8.820;2023-03-31T15:52:45;0.65;;;0.50;;
48042;SDS011;33988;47.992;8.820;2023-03-31T15:57:59;0.95;;;0.32;;
48042;SDS011;33988;47.992;8.820;2023-03-31T16:03:28;1.27;;;0.40;;
48042;SDS011;33988;47.992;8.820;2023-03-31T16:06:08;2.17;;;0.50;;
48042;SDS011;33988;47.992;8.820;2023-03-31T16:08:46;2.72;;;0.70;;
48042;SDS011;33988;47.992;8.820;2023-03-31T16:11:37;1.38;;;0.73;;
48042;SDS011;33988;47.992;8.820;2023-03-31T16:14:22;3.90;;;0.60;;
48042;SDS011;33988;47.992;8.820;2023-03-31T16:17:18;1.25;;;0.50;;
48042;SDS011;33988;47.992;8.820;2023-03-31T16:20:30;0.95;;;0.60;;
48042;SDS011;33988;47.992;8.820;2023-03-31T16:23:13;1.70;;;0.60;;
48042;SDS011;33988;47.992;8.820;2023-03-31T16:25:44;2.00;;;0.80;;
48042;SDS011;33988;47.992;8.820;2023-03-31T16:28:31;1.80;;;0.88;;
48042;SDS011;33988;47.992;8.820;2023-03-31T16:31:04;1.23;;;0.57;;
48042;SDS011;33988;47.992;8.820;2023-03-31T16:34:00;0.63;;;0.43;;
48042;SDS011;33988;47.992;8.820;2023-03-31T16:36:29;3.85;;;1.20;;
48042;SDS011;33988;47.992;8.820;2023-03-31T16:38:56;2.95;;;1.00;;
48042;SDS011;33988;47.992;8.820;2023-03-31T16:41:27;1.35;;;0.82;;
48042;SDS011;33988;47.992;8.820;2023-03-31T16:43:54;2.95;;;0.50;;
48042;SDS011;33988;47.992;8.820;2023-03-31T16:46:22;0.93;;;0.70;;
48042;SDS011;33988;47.992;8.820;2023-03-31T16:48:49;1.67;;;1.00;;
48042;SDS011;33988;47.992;8.820;2023-03-31T16:51:18;1.52;;;0.73;;
48042;SDS011;33988;47.992;8.820;2023-03-31T16:53:46;2.08;;;0.80;;
48042;SDS011;33988;47.992;8.820;2023-03-31T16:56:13;2.08;;;1.10;;
48042;SDS011;33988;47.992;8.820;2023-03-31T16:58:43;2.30;;;1.10;;
48042;SDS011;33988;47.992;8.820;2023-03-31T17:01:12;1.45;;;0.85;;
48042;SDS011;33988;47.992;8.820;2023-03-31T17:03:41;1.25;;;0.80;;
48042;SDS011;33988;47.992;8.820;2023-03-31T17:06:10;1.40;;;0.85;;
48042;SDS011;33988;47.992;8.820;2023-03-31T17:08:40;1.67;;;0.93;;
48042;SDS011;33988;47.992;8.820;2023-03-31T17:11:10;1.33;;;1.20;;
48042;SDS011;33988;47.992;8.820;2023-03-31T17:13:40;2.92;;;1.77;;
48042;SDS011;33988;47.992;8.820;2023-03-31T17:16:08;4.30;;;1.80;;
48042;SDS011;33988;47.992;8.820;2023-03-31T17:18:40;2.70;;;1.30;;
48042;SDS011;33988;47.992;8.820;2023-03-31T17:21:08;1.63;;;1.10;;
48042;SDS011;33988;47.992;8.820;2023-03-31T17:26:07;3.17;;;1.08;;
48042;SDS011;33988;47.992;8.820;2023-03-31T17:28:35;2.90;;;1.30;;
48042;SDS011;33988;47.992;8.820;2023-03-31T17:31:13;3.20;;;1.05;;
48042;SDS011;33988;47.992;8.820;2023-03-31T17:33:46;2.40;;;1.10;;
48042;SDS011;33988;47.992;8.820;2023-03-31T17:36:13;2.70;;;0.90;;
48042;SDS011;33988;47.992;8.820;2023-03-31T17:38:41;1.98;;;1.10;;
48042;SDS011;33988;47.992;8.820;2023-03-31T17:41:13;2.05;;;0.90;;
48042;SDS011;33988;47.992;8.820;2023-03-31T17:43:43;1.85;;;1.10;;
48042;SDS011;33988;47.992;8.820;2023-03-31T17:46:12;3.65;;;1.30;;
48042;SDS011;33988;47.992;8.820;2023-03-31T17:48:40;3.40;;;1.00;;
48042;SDS011;33988;47.992;8.820;2023-03-31T17:51:14;1.80;;;1.13;;
48042;SDS011;33988;47.992;8.820;2023-03-31T17:53:44;2.28;;;0.88;;
48042;SDS011;33988;47.992;8.820;2023-03-31T17:56:15;2.50;;;0.90;;
48042;SDS011;33988;47.992;8.820;2023-03-31T17:58:43;4.35;;;1.10;;
48042;SDS011;33988;47.992;8.820;2023-03-31T18:01:11;2.70;;;1.10;;
48042;SDS011;33988;47.992;8.820;2023-03-31T18:03:39;3.38;;;1.13;;
48042;SDS011;33988;47.992;8.820;2023-03-31T18:06:12;2.55;;;1.00;;
48042;SDS011;33988;47.992;8.820;2023-03-31T18:08:40;1.92;;;0.90;;
48042;SDS011;33988;47.992;8.820;2023-03-31T18:11:07;3.80;;;1.55;;
48042;SDS011;33988;47.992;8.820;2023-03-31T18:13:35;2.28;;;1.02;;
48042;SDS011;33988;47.992;8.820;2023-03-31T18:16:05;5.10;;;1.73;;
48042;SDS011;33988;47.992;8.820;2023-03-31T18:18:35;2.22;;;1.27;;
48042;SDS011;33988;47.992;8.820;2023-03-31T18:21:04;2.78;;;1.25;;
48042;SDS011;33988;47.992;8.820;2023-03-31T18:23:33;3.47;;;0.95;;
48042;SDS011;33988;47.992;8.820;2023-03-31T18:26:07;3.13;;;1.00;;
48042;SDS011;33988;47.992;8.820;2023-03-31T18:28:38;1.60;;;1.00;;
48042;SDS011;33988;47.992;8.820;2023-03-31T18:31:07;3.17;;;1.40;;
48042;SDS011;33988;47.992;8.820;2023-03-31T18:33:38;3.70;;;1.30;;
48042;SDS011;33988;47.992;8.820;2023-03-31T18:36:08;4.35;;;1.48;;
48042;SDS011;33988;47.992;8.820;2023-03-31T18:38:44;2.25;;;0.90;;
48042;SDS011;33988;47.992;8.820;2023-03-31T18:41:13;2.17;;;0.93;;
48042;SDS011;33988;47.992;8.820;2023-03-31T18:43:42;3.90;;;1.40;;
48042;SDS011;33988;47.992;8.820;2023-03-31T18:46:20;3.53;;;1.20;;